AirNav   Everest Fuels
 
 1028 users online  

64OG Antone Ranch Airport
Mitchell, Oregon, USA

GOING TO MITCHELL?


FAA INFORMATION EFFECTIVE 21 MAY 2020

Location

FAA Identifier: 64OG
Lat/Long: 44-29-36.3700N 119-50-37.2700W
44-29.606167N 119-50.621167W
44.4934361,-119.8436861
(estimated)
Elevation: 3908 ft. / 1191 m (estimated)
From city: 14 miles SE of MITCHELL, OR
Time zone: UTC -7 (UTC -8 during Standard Time)
Zip code: 97750

Airport Operations

Airport use: Private use. Permission required prior to landing
Activation date: 07/2009
Control tower: no
ARTCC: SEATTLE CENTER
FSS: MC MINNVILLE FLIGHT SERVICE STATION
Attendance: UNATNDD
Wind indicator: yes
Segmented circle: no

Nearby radio navigation aids

VOR radial/distance  VOR name  Freq  Var
IMBr191/10.9KIMBERLY VOR/DME115.6020E

Airport Services

Runway Information

Runway 7/25

Dimensions: 5180 x 65 ft. / 1579 x 20 m
Surface: asphalt
RUNWAY 7  RUNWAY 25
Traffic pattern: leftleft
Obstructions: none160 ft. gnd, 5280 ft. from runway

Airport Ownership and Management from official FAA records

Ownership: Privately-owned
Owner: ALSCOTT ANTONE RANCH LLC
501 E BAYBROOK COURT
BOISE, ID 83706
Phone 208 424 3871
Manager: RICHARD SCOTT
2081 COMMERCE AVE
BOISE, ID 83705
Phone 208 336 8581

Additional Remarks

FOR CD CTC SEATTLE ARTCC AT 253-351-3694.

Instrument Procedures

There are no published instrument procedures at 64OG.

Some nearby airports with instrument procedures:

KGCD - Grant County Regional Airport/Ogilvie Field (38 nm E)
S39 - Prineville Airport (47 nm W)
S33 - Madras Municipal Airport (57 nm W)
KRDM - Roberts Field Airport (58 nm W)
9S9 - Lexington Airport (58 nm N)
 
Loc | Ops | Rwys | IFR | FBO | Links
Com | Nav | Svcs | Stats | Notes
Aerial photo
No photo
 
Sectional chart

 
Airport distance calculator
Flying to Antone Ranch Airport? Find the distance to fly.

From to 64OG

Sunrise and sunset
Times for 30-May-2020
 Local
(UTC-7)
 Zulu
(UTC)
Morning civil twilight04:4311:43
Sunrise05:1912:19
Sunset20:3503:35
Evening civil twilight21:1104:11

Current date and time
Zulu (UTC)  30-May-2020 18:48:36
Local (UTC-7)  30-May-2020 11:48:36
 
METAR
KGCD 
38nm E 
301835Z AUTO 07018G26KT 10SM CLR 30/12 A2966 RMK AO2 T02950116
KS39 
47nm W 
301835Z AUTO 28012G19KT 10SM CLR 25/11 A2967 RMK AO2
TAF
NOTAMs
Click for the latest NOTAMs
NOTAMs are issued by the DoD/FAA and will open in a separate window not controlled by AirNav.

 

 
 

Would you like to see your business listed on this page?

 If your business provides an interesting product or service to pilots, flight crews, aircraft, or users of the Antone Ranch Airport, you should consider listing it here.  To start the listing process, click on the button below
 
Add a business
 

Other Pages about Antone Ranch Airport

Update a link
 
Copyright © AirNav, LLC. All rights reserved. Privacy Policy  Contact